createdAt,value
2019-01-10T00:00:08.511Z,1011.90
2019-01-10T00:01:08.481Z,1011.90
2019-01-10T00:02:08.474Z,1011.84
2019-01-10T00:03:08.450Z,1011.92
2019-01-10T00:04:08.456Z,1011.93
2019-01-10T00:05:08.459Z,1012.05
2019-01-10T00:06:08.425Z,1012.00
2019-01-10T00:07:08.401Z,1012.09
2019-01-10T00:08:08.400Z,1012.08
2019-01-10T00:09:08.388Z,1012.06
2019-01-10T00:10:08.410Z,1011.94
2019-01-10T00:11:08.371Z,1012.10
2019-01-10T00:12:08.355Z,1012.02
2019-01-10T00:13:08.350Z,1012.08
2019-01-10T00:14:08.335Z,1012.08
2019-01-10T00:15:08.317Z,1012.05
2019-01-10T00:16:08.328Z,1012.02
2019-01-10T00:17:08.300Z,1012.06
2019-01-10T00:18:08.298Z,1012.10
2019-01-10T00:19:08.277Z,1012.11
2019-01-10T00:20:08.258Z,1012.08
2019-01-10T00:21:08.266Z,1012.14
2019-01-10T00:22:08.241Z,1012.24
2019-01-10T00:23:08.231Z,1012.16
2019-01-10T00:24:08.215Z,1012.10
2019-01-10T00:25:08.228Z,1012.19
2019-01-10T00:26:08.221Z,1012.24
2019-01-10T00:27:08.201Z,1012.16
2019-01-10T00:28:08.178Z,1012.19
2019-01-10T00:29:08.175Z,1012.19
2019-01-10T00:30:08.157Z,1012.16
2019-01-10T00:31:08.153Z,1012.24
2019-01-10T00:32:08.126Z,1012.37
2019-01-10T00:33:08.117Z,1012.25
2019-01-10T00:34:08.103Z,1012.23
2019-01-10T00:35:08.114Z,1012.43
2019-01-10T00:36:08.102Z,1012.41
2019-01-10T00:37:08.081Z,1012.31
2019-01-10T00:38:08.086Z,1012.37
2019-01-10T00:39:08.052Z,1012.41
2019-01-10T00:40:08.047Z,1012.35
2019-01-10T00:41:08.063Z,1012.47
2019-01-10T00:42:08.040Z,1012.37
2019-01-10T00:43:08.014Z,1012.40
2019-01-10T00:44:07.999Z,1012.40
2019-01-10T00:45:07.995Z,1012.47
2019-01-10T00:46:07.997Z,1012.37
2019-01-10T00:47:07.984Z,1012.35
2019-01-10T00:48:07.963Z,1012.38
2019-01-10T00:49:07.950Z,1012.38
2019-01-10T00:50:07.940Z,1012.38
2019-01-10T00:51:07.938Z,1012.39
2019-01-10T00:52:07.908Z,1012.37
2019-01-10T00:53:07.924Z,1012.41
2019-01-10T00:54:07.905Z,1012.45
2019-01-10T00:55:07.874Z,1012.40
2019-01-10T00:56:07.902Z,1012.48
2019-01-10T00:57:07.859Z,1012.49
2019-01-10T00:58:07.944Z,1012.42
2019-01-10T00:59:07.835Z,1012.51
2019-01-10T01:00:07.832Z,1012.55
2019-01-10T01:01:07.839Z,1012.50
2019-01-10T01:02:07.800Z,1012.49
2019-01-10T01:03:07.792Z,1012.51
2019-01-10T01:04:07.800Z,1012.54
2019-01-10T01:05:07.774Z,1012.61
2019-01-10T01:06:07.771Z,1012.62
2019-01-10T01:07:07.756Z,1012.62
2019-01-10T01:08:07.752Z,1012.59
2019-01-10T01:09:07.723Z,1012.70
2019-01-10T01:10:07.727Z,1012.73
2019-01-10T01:11:07.707Z,1012.76
2019-01-10T01:12:07.708Z,1012.72
2019-01-10T01:13:07.686Z,1012.73
2019-01-10T01:14:07.663Z,1012.78
2019-01-10T01:15:07.663Z,1012.86
2019-01-10T01:16:07.643Z,1012.72
2019-01-10T01:17:07.661Z,1012.72
2019-01-10T01:18:07.633Z,1012.70
2019-01-10T01:19:07.613Z,1012.86
2019-01-10T01:20:07.600Z,1012.77
2019-01-10T01:21:07.605Z,1012.87
2019-01-10T01:22:07.589Z,1012.83
2019-01-10T01:23:07.573Z,1012.80
2019-01-10T01:24:07.560Z,1013.01
2019-01-10T01:25:07.542Z,1012.88
2019-01-10T01:26:07.537Z,1012.89
2019-01-10T01:27:07.544Z,1013.10
2019-01-10T01:28:07.523Z,1013.01
2019-01-10T01:29:07.504Z,1013.05
2019-01-10T01:30:07.495Z,1012.98
2019-01-10T01:31:07.483Z,1013.04
2019-01-10T01:32:07.502Z,1012.90
2019-01-10T01:33:07.463Z,1012.90
2019-01-10T01:34:07.466Z,1013.10
2019-01-10T01:35:07.442Z,1012.99
2019-01-10T01:36:07.436Z,1012.88
2019-01-10T01:37:07.458Z,1013.09
2019-01-10T01:38:07.424Z,1012.98
2019-01-10T01:39:07.406Z,1012.99
2019-01-10T01:40:07.380Z,1013.03
2019-01-10T01:41:07.370Z,1013.12
2019-01-10T01:42:07.377Z,1013.04
2019-01-10T01:43:07.838Z,1013.10
2019-01-10T01:44:07.333Z,1013.04
2019-01-10T01:45:07.324Z,1013.18
2019-01-10T01:46:07.868Z,1013.27
2019-01-10T01:47:07.312Z,1013.26
2019-01-10T01:48:07.307Z,1013.11
2019-01-10T01:49:07.291Z,1013.29
2019-01-10T01:50:07.270Z,1013.30
2019-01-10T01:51:07.248Z,1013.31
2019-01-10T01:52:07.458Z,1013.29
2019-01-10T01:53:07.254Z,1013.30
2019-01-10T01:54:07.230Z,1013.24
2019-01-10T01:55:07.226Z,1013.42
2019-01-10T01:56:07.202Z,1013.38
2019-01-10T01:57:07.185Z,1013.45
2019-01-10T01:58:07.209Z,1013.51
2019-01-10T01:59:07.176Z,1013.58
2019-01-10T02:00:07.169Z,1013.49
2019-01-10T02:01:07.184Z,1013.39
2019-01-10T02:02:07.148Z,1013.44
2019-01-10T02:03:07.144Z,1013.42
2019-01-10T02:04:07.116Z,1013.55
2019-01-10T02:05:07.123Z,1013.52
2019-01-10T02:06:07.103Z,1013.45
2019-01-10T02:07:07.088Z,1013.47
2019-01-10T02:08:07.090Z,1013.54
2019-01-10T02:09:07.062Z,1013.48
2019-01-10T02:10:07.062Z,1013.57
2019-01-10T02:11:07.046Z,1013.60
2019-01-10T02:12:07.024Z,1013.57
2019-01-10T02:13:16.287Z,1013.64
2019-01-10T02:14:08.024Z,1013.59
2019-01-10T02:15:07.012Z,1013.51
2019-01-10T02:16:06.990Z,1013.70
2019-01-10T02:17:06.992Z,1013.64
2019-01-10T02:18:06.973Z,1013.64
2019-01-10T02:19:06.954Z,1013.71
2019-01-10T02:20:06.946Z,1013.58
2019-01-10T02:21:06.929Z,1013.82
2019-01-10T02:22:06.932Z,1013.76
2019-01-10T02:23:06.934Z,1013.74
2019-01-10T02:24:06.910Z,1013.76
2019-01-10T02:25:06.900Z,1013.61
2019-01-10T02:26:06.879Z,1013.68
2019-01-10T02:27:06.879Z,1013.66
2019-01-10T02:28:06.895Z,1013.67
2019-01-10T02:29:06.844Z,1013.80
2019-01-10T02:30:06.836Z,1013.70
2019-01-10T02:31:06.824Z,1013.71
2019-01-10T02:32:06.826Z,1013.80
2019-01-10T02:33:06.798Z,1013.75
2019-01-10T02:34:06.802Z,1013.67
2019-01-10T02:35:06.785Z,1013.85
2019-01-10T02:36:06.804Z,1013.77
2019-01-10T02:37:06.784Z,1013.69
2019-01-10T02:38:06.755Z,1013.87
2019-01-10T02:39:06.740Z,1013.79
2019-01-10T02:40:06.735Z,1013.83
2019-01-10T02:41:06.718Z,1013.84
2019-01-10T02:42:06.721Z,1013.99
2019-01-10T02:43:06.694Z,1013.92
2019-01-10T02:44:06.702Z,1014.04
2019-01-10T02:45:06.662Z,1014.03
2019-01-10T02:46:06.648Z,1013.91
2019-01-10T02:47:06.655Z,1013.96
2019-01-10T02:48:06.631Z,1013.92
2019-01-10T02:49:06.642Z,1013.97
2019-01-10T02:50:06.613Z,1013.97
2019-01-10T02:51:06.615Z,1013.92
2019-01-10T02:52:06.593Z,1013.95
2019-01-10T02:53:06.584Z,1013.99
2019-01-10T02:54:06.600Z,1014.03
2019-01-10T02:55:06.565Z,1014.02
2019-01-10T02:56:06.561Z,1014.01
2019-01-10T02:57:06.535Z,1013.95
2019-01-10T02:58:06.529Z,1014.06
2019-01-10T02:59:06.544Z,1014.14
2019-01-10T03:00:06.511Z,1013.98
2019-01-10T03:01:06.505Z,1014.02
2019-01-10T03:02:06.478Z,1013.97
2019-01-10T03:03:06.470Z,1014.04
2019-01-10T03:04:06.488Z,1013.97
2019-01-10T03:05:06.456Z,1013.96
2019-01-10T03:06:06.443Z,1013.90
2019-01-10T03:07:06.428Z,1013.88
2019-01-10T03:08:06.414Z,1013.84
2019-01-10T03:09:06.401Z,1013.93
2019-01-10T03:10:06.420Z,1013.97
2019-01-10T03:11:06.394Z,1014.07
2019-01-10T03:12:06.368Z,1014.03
2019-01-10T03:13:06.376Z,1014.03
2019-01-10T03:14:06.344Z,1014.09
2019-01-10T03:15:06.348Z,1014.07
2019-01-10T03:16:06.333Z,1014.08
2019-01-10T03:17:06.318Z,1014.02
2019-01-10T03:18:06.308Z,1014.06
2019-01-10T03:19:06.314Z,1014.13
2019-01-10T03:20:06.298Z,1014.14
2019-01-10T03:21:06.279Z,1014.15
2019-01-10T03:22:06.264Z,1014.13
2019-01-10T03:23:06.273Z,1014.13
2019-01-10T03:24:06.270Z,1014.10
2019-01-10T03:25:06.248Z,1014.20
2019-01-10T03:26:06.228Z,1014.13
2019-01-10T03:27:06.260Z,1014.20
2019-01-10T03:28:06.210Z,1014.13
2019-01-10T03:29:06.181Z,1014.20
2019-01-10T03:30:06.190Z,1014.18
2019-01-10T03:31:06.172Z,1014.10
2019-01-10T03:32:06.162Z,1014.11
2019-01-10T03:33:06.153Z,1014.19
2019-01-10T03:34:06.140Z,1014.16
2019-01-10T03:35:06.149Z,1014.20
2019-01-10T03:36:06.116Z,1014.19
2019-01-10T03:37:06.096Z,1014.25
2019-01-10T03:38:06.087Z,1014.15
2019-01-10T03:39:06.101Z,1014.22
2019-01-10T03:40:06.095Z,1014.32
2019-01-10T03:41:06.053Z,1014.31
2019-01-10T03:42:06.044Z,1014.42
2019-01-10T03:43:06.037Z,1014.37
2019-01-10T03:44:06.026Z,1014.47
2019-01-10T03:45:06.013Z,1014.33
2019-01-10T03:46:06.022Z,1014.24
2019-01-10T03:47:05.996Z,1014.23
2019-01-10T03:48:05.986Z,1014.26
2019-01-10T03:49:05.970Z,1014.24
2019-01-10T03:50:05.956Z,1014.28
2019-01-10T03:51:05.963Z,1014.24
2019-01-10T03:52:05.941Z,1014.37
2019-01-10T03:53:05.937Z,1014.42
2019-01-10T03:54:05.920Z,1014.45
2019-01-10T03:55:05.898Z,1014.37
2019-01-10T03:56:05.931Z,1014.25
2019-01-10T03:57:05.875Z,1014.20
2019-01-10T03:58:05.875Z,1014.26
2019-01-10T03:59:05.859Z,1014.30
2019-01-10T04:00:05.849Z,1014.25
2019-01-10T04:01:05.877Z,1014.26
2019-01-10T04:02:05.825Z,1014.29
2019-01-10T04:03:05.821Z,1014.31
2019-01-10T04:04:05.810Z,1014.22
2019-01-10T04:05:05.788Z,1014.18
2019-01-10T04:06:05.809Z,1014.29
2019-01-10T04:07:05.783Z,1014.23
2019-01-10T04:08:05.765Z,1014.35
2019-01-10T04:09:05.756Z,1014.36
2019-01-10T04:10:05.734Z,1014.37
2019-01-10T04:11:05.744Z,1014.42
2019-01-10T04:12:05.711Z,1014.39
2019-01-10T04:13:05.753Z,1014.38
2019-01-10T04:14:05.700Z,1014.38
2019-01-10T04:15:05.688Z,1014.29
2019-01-10T04:16:05.692Z,1014.27
2019-01-10T04:17:05.666Z,1014.50
2019-01-10T04:18:05.650Z,1014.51
2019-01-10T04:19:05.652Z,1014.45
2019-01-10T04:20:05.630Z,1014.49
2019-01-10T04:21:05.629Z,1014.54
2019-01-10T04:22:05.604Z,1014.54
2019-01-10T04:23:05.618Z,1014.51
2019-01-10T04:24:05.581Z,1014.52
2019-01-10T04:25:05.579Z,1014.60
2019-01-10T04:26:05.574Z,1014.43
2019-01-10T04:27:05.552Z,1014.41
2019-01-10T04:28:05.540Z,1014.48
2019-01-10T04:29:05.550Z,1014.46
2019-01-10T04:30:05.526Z,1014.58
2019-01-10T04:31:05.546Z,1014.68
2019-01-10T04:32:05.501Z,1014.67
2019-01-10T04:33:05.486Z,1014.66
2019-01-10T04:34:05.474Z,1014.64
2019-01-10T04:35:05.478Z,1014.71
2019-01-10T04:36:05.462Z,1014.72
2019-01-10T04:37:05.558Z,1014.73
2019-01-10T04:38:05.446Z,1014.49
2019-01-10T04:39:05.417Z,1014.67
2019-01-10T04:40:05.427Z,1014.67
2019-01-10T04:41:05.394Z,1014.70
2019-01-10T04:42:05.405Z,1014.59
2019-01-10T04:43:05.384Z,1014.58
2019-01-10T04:44:07.304Z,1014.60
2019-01-10T04:45:05.356Z,1014.62
2019-01-10T04:46:05.344Z,1014.66
2019-01-10T04:47:05.362Z,1014.64
2019-01-10T04:48:05.325Z,1014.62
2019-01-10T04:49:05.310Z,1014.65
2019-01-10T04:50:05.319Z,1014.65
2019-01-10T04:51:05.297Z,1014.63
2019-01-10T04:52:05.296Z,1014.65
2019-01-10T04:53:05.284Z,1014.70
2019-01-10T04:54:05.295Z,1014.68
2019-01-10T04:55:05.268Z,1014.86
2019-01-10T04:56:05.246Z,1014.82
2019-01-10T04:57:05.249Z,1014.79
2019-01-10T04:58:05.210Z,1014.69
2019-01-10T04:59:05.211Z,1014.69
2019-01-10T05:00:05.205Z,1014.71
2019-01-10T05:01:05.182Z,1014.78
2019-01-10T05:02:05.194Z,1014.76
2019-01-10T05:03:05.158Z,1014.86
2019-01-10T05:04:05.145Z,1014.75
2019-01-10T05:05:05.147Z,1014.81
2019-01-10T05:06:05.126Z,1014.77
2019-01-10T05:07:05.144Z,1014.86
2019-01-10T05:08:05.103Z,1014.79
2019-01-10T05:09:05.085Z,1014.84
2019-01-10T05:10:05.090Z,1014.79
2019-01-10T05:11:05.069Z,1014.87
2019-01-10T05:12:05.091Z,1014.86
2019-01-10T05:13:05.047Z,1014.95
2019-01-10T05:14:05.039Z,1015.02
2019-01-10T05:15:05.043Z,1014.96
2019-01-10T05:16:05.027Z,1015.03
2019-01-10T05:17:05.005Z,1014.99
2019-01-10T05:18:05.009Z,1014.88
2019-01-10T05:19:04.990Z,1014.98
2019-01-10T05:20:04.989Z,1014.92
2019-01-10T05:21:04.962Z,1014.84
2019-01-10T05:22:04.941Z,1014.92
2019-01-10T05:23:04.939Z,1014.95
2019-01-10T05:24:04.933Z,1015.04
2019-01-10T05:25:04.927Z,1015.01
2019-01-10T05:26:04.901Z,1015.08
2019-01-10T05:27:04.905Z,1015.01
2019-01-10T05:28:04.906Z,1015.00
2019-01-10T05:29:04.876Z,1015.10
2019-01-10T05:30:04.860Z,1015.09
2019-01-10T05:31:04.872Z,1015.09
2019-01-10T05:32:04.845Z,1015.12
2019-01-10T05:33:04.837Z,1015.21
2019-01-10T05:34:04.810Z,1015.19
2019-01-10T05:35:04.802Z,1015.12
2019-01-10T05:36:04.798Z,1015.16
2019-01-10T05:37:06.017Z,1015.22
2019-01-10T05:38:04.808Z,1015.14
2019-01-10T05:39:04.769Z,1015.16
2019-01-10T05:40:04.746Z,1015.26
2019-01-10T05:41:04.740Z,1015.40
2019-01-10T05:42:04.737Z,1015.34
2019-01-10T05:43:04.741Z,1015.29
2019-01-10T05:44:04.734Z,1015.33
2019-01-10T05:45:04.706Z,1015.35
2019-01-10T05:46:04.691Z,1015.26
2019-01-10T05:47:04.680Z,1015.30
2019-01-10T05:48:04.700Z,1015.29
2019-01-10T05:49:04.659Z,1015.34
2019-01-10T05:50:04.640Z,1015.49
2019-01-10T05:51:04.634Z,1015.42
2019-01-10T05:52:04.624Z,1015.56
2019-01-10T05:53:04.641Z,1015.45
2019-01-10T05:54:04.602Z,1015.53
2019-01-10T05:55:04.586Z,1015.53
2019-01-10T05:56:04.587Z,1015.40
2019-01-10T05:57:04.566Z,1015.40
2019-01-10T05:58:04.568Z,1015.53
2019-01-10T05:59:04.564Z,1015.37
2019-01-10T06:00:04.534Z,1015.56
2019-01-10T06:01:04.515Z,1015.51
2019-01-10T06:02:04.536Z,1015.51
2019-01-10T06:03:04.519Z,1015.51
2019-01-10T06:04:04.500Z,1015.54
2019-01-10T06:05:04.484Z,1015.54
2019-01-10T06:06:04.478Z,1015.54
2019-01-10T06:07:04.453Z,1015.55
2019-01-10T06:08:04.462Z,1015.56
2019-01-10T06:09:04.443Z,1015.57
2019-01-10T06:10:04.419Z,1015.55
2019-01-10T06:11:04.407Z,1015.57
2019-01-10T06:12:04.411Z,1015.60
2019-01-10T06:13:04.386Z,1015.58
2019-01-10T06:14:04.398Z,1015.53
2019-01-10T06:15:04.378Z,1015.70
2019-01-10T06:16:04.355Z,1015.66
2019-01-10T06:17:04.350Z,1015.84
2019-01-10T06:18:04.344Z,1015.70
2019-01-10T06:19:04.343Z,1015.83
2019-01-10T06:20:04.316Z,1015.67
2019-01-10T06:21:04.318Z,1015.70
2019-01-10T06:22:04.290Z,1015.87
2019-01-10T06:23:04.279Z,1015.77
2019-01-10T06:24:04.307Z,1015.80
2019-01-10T06:25:04.275Z,1015.81
2019-01-10T06:26:04.251Z,1015.80
2019-01-10T06:27:04.233Z,1015.91
2019-01-10T06:28:04.226Z,1015.91
2019-01-10T06:29:04.231Z,1015.90
2019-01-10T06:30:04.198Z,1015.89
2019-01-10T06:31:04.197Z,1015.94
2019-01-10T06:32:04.180Z,1015.92
2019-01-10T06:33:04.162Z,1016.02
2019-01-10T06:34:06.403Z,1016.03
2019-01-10T06:35:04.143Z,1015.96
2019-01-10T06:36:04.127Z,1016.09
2019-01-10T06:37:04.130Z,1016.02
2019-01-10T06:38:04.209Z,1016.07
2019-01-10T06:39:04.119Z,1016.08
2019-01-10T06:40:04.090Z,1015.98
2019-01-10T06:41:04.085Z,1016.00
2019-01-10T06:42:04.078Z,1016.03
2019-01-10T06:43:04.056Z,1016.06
2019-01-10T06:44:04.076Z,1015.99
2019-01-10T06:45:04.041Z,1016.01
2019-01-10T06:46:04.018Z,1016.15
2019-01-10T06:47:04.013Z,1016.16
2019-01-10T06:48:04.017Z,1016.07
2019-01-10T06:49:04.000Z,1016.09
2019-01-10T06:50:04.000Z,1016.13
2019-01-10T06:51:03.977Z,1016.07
2019-01-10T06:52:03.960Z,1016.26
2019-01-10T06:53:03.954Z,1016.14
2019-01-10T06:54:03.940Z,1016.12
2019-01-10T06:55:03.956Z,1016.12
2019-01-10T06:56:03.917Z,1016.24
2019-01-10T06:57:03.909Z,1016.29
2019-01-10T06:58:03.904Z,1016.28
2019-01-10T06:59:03.879Z,1016.30
2019-01-10T07:00:03.896Z,1016.32
2019-01-10T07:01:03.860Z,1016.31
2019-01-10T07:02:03.848Z,1016.23
2019-01-10T07:03:03.850Z,1016.14
2019-01-10T07:04:03.836Z,1016.21
2019-01-10T07:05:03.844Z,1016.17
2019-01-10T07:06:03.816Z,1016.15
2019-01-10T07:07:03.813Z,1016.21
2019-01-10T07:08:03.795Z,1016.22
2019-01-10T07:09:03.768Z,1016.29
2019-01-10T07:10:03.772Z,1016.28
2019-01-10T07:11:03.755Z,1016.30
2019-01-10T07:12:03.739Z,1016.25
2019-01-10T07:13:03.731Z,1016.24
2019-01-10T07:14:03.756Z,1016.39
2019-01-10T07:15:03.740Z,1016.25
2019-01-10T07:16:03.720Z,1016.31
2019-01-10T07:17:03.718Z,1016.43
2019-01-10T07:18:03.670Z,1016.41
2019-01-10T07:19:03.689Z,1016.38
2019-01-10T07:20:03.682Z,1016.32
2019-01-10T07:21:03.651Z,1016.30
2019-01-10T07:22:03.638Z,1016.36
2019-01-10T07:23:03.639Z,1016.38
2019-01-10T07:24:03.596Z,1016.30
2019-01-10T07:25:03.632Z,1016.48
2019-01-10T07:26:03.594Z,1016.58
2019-01-10T07:27:03.573Z,1016.58
2019-01-10T07:28:03.573Z,1016.59
2019-01-10T07:29:03.547Z,1016.59
2019-01-10T07:30:03.552Z,1016.56
2019-01-10T07:31:03.543Z,1016.58
2019-01-10T07:32:03.521Z,1016.55
2019-01-10T07:33:03.527Z,1016.64
2019-01-10T07:34:03.508Z,1016.55
2019-01-10T07:35:03.510Z,1016.62
2019-01-10T07:36:03.485Z,1016.64
2019-01-10T07:37:12.392Z,1016.71
2019-01-10T07:38:04.458Z,1016.78
2019-01-10T07:39:03.441Z,1016.64
2019-01-10T07:40:03.448Z,1016.63
2019-01-10T07:41:03.442Z,1016.69
2019-01-10T07:42:03.414Z,1016.71
2019-01-10T07:43:03.407Z,1016.71
2019-01-10T07:44:03.388Z,1016.80
2019-01-10T07:45:03.385Z,1016.70
2019-01-10T07:46:03.381Z,1016.67
2019-01-10T07:47:03.355Z,1016.70
2019-01-10T07:48:03.342Z,1016.71
2019-01-10T07:49:03.325Z,1016.78
2019-01-10T07:50:03.321Z,1016.81
2019-01-10T07:51:03.324Z,1016.75
2019-01-10T07:52:03.308Z,1016.68
2019-01-10T07:53:03.285Z,1016.73
2019-01-10T07:54:03.274Z,1016.75
2019-01-10T07:55:03.268Z,1016.80
2019-01-10T07:56:03.261Z,1016.77
2019-01-10T07:57:03.251Z,1016.84
2019-01-10T07:58:03.264Z,1016.74
2019-01-10T07:59:03.211Z,1016.86
2019-01-10T08:00:03.221Z,1016.99
2019-01-10T08:01:03.225Z,1016.96
2019-01-10T08:02:03.203Z,1016.90
2019-01-10T08:03:03.206Z,1016.83
2019-01-10T08:04:03.154Z,1016.85
2019-01-10T08:05:03.147Z,1016.91
2019-01-10T08:06:04.644Z,1016.85
2019-01-10T08:07:03.131Z,1016.88
2019-01-10T08:08:03.120Z,1016.91
2019-01-10T08:09:03.158Z,1016.92
2019-01-10T08:10:03.099Z,1016.92
2019-01-10T08:11:03.140Z,1017.02
2019-01-10T08:12:03.070Z,1016.96
2019-01-10T08:13:03.060Z,1016.95
2019-01-10T08:14:03.046Z,1016.98
2019-01-10T08:15:11.563Z,1017.06
2019-01-10T08:16:04.055Z,1017.14
2019-01-10T08:17:03.023Z,1017.03
2019-01-10T08:18:03.006Z,1017.05
2019-01-10T08:19:03.003Z,1017.04
2019-01-10T08:20:03.029Z,1017.07
2019-01-10T08:21:02.985Z,1017.10
2019-01-10T08:22:03.023Z,1017.17
2019-01-10T08:23:02.961Z,1017.15
2019-01-10T08:24:02.957Z,1017.14
2019-01-10T08:25:02.941Z,1017.20
2019-01-10T08:26:02.925Z,1017.12
2019-01-10T08:27:02.928Z,1017.21
2019-01-10T08:28:02.937Z,1017.19
2019-01-10T08:29:02.887Z,1017.15
2019-01-10T08:30:02.878Z,1017.24
2019-01-10T08:31:02.869Z,1017.25
2019-01-10T08:32:04.125Z,1017.24
2019-01-10T08:33:02.834Z,1017.23
2019-01-10T08:34:02.835Z,1017.23
2019-01-10T08:35:02.818Z,1017.27
2019-01-10T08:36:02.799Z,1017.32
2019-01-10T08:37:02.813Z,1017.26
2019-01-10T08:38:02.801Z,1017.28
2019-01-10T08:39:02.775Z,1017.34
2019-01-10T08:40:02.788Z,1017.35
2019-01-10T08:41:02.770Z,1017.38
2019-01-10T08:42:02.771Z,1017.34
2019-01-10T08:43:02.749Z,1017.38
2019-01-10T08:44:02.774Z,1017.41
2019-01-10T08:45:02.730Z,1017.36
2019-01-10T08:46:02.700Z,1017.32
2019-01-10T08:47:02.709Z,1017.39
2019-01-10T08:48:02.682Z,1017.47
2019-01-10T08:49:02.672Z,1017.38
2019-01-10T08:50:02.658Z,1017.42
2019-01-10T08:51:02.663Z,1017.38
2019-01-10T08:52:02.659Z,1017.40
2019-01-10T08:53:02.632Z,1017.42
2019-01-10T08:54:02.612Z,1017.42
2019-01-10T08:55:02.614Z,1017.41
2019-01-10T08:56:02.599Z,1017.44
2019-01-10T08:57:02.618Z,1017.58
2019-01-10T08:58:02.585Z,1017.50
2019-01-10T08:59:02.581Z,1017.48
2019-01-10T09:00:02.553Z,1017.53
2019-01-10T09:01:02.539Z,1017.59
2019-01-10T09:02:02.530Z,1017.41
2019-01-10T09:03:02.536Z,1017.46
2019-01-10T09:04:02.521Z,1017.48
2019-01-10T09:05:02.488Z,1017.52
2019-01-10T09:06:08.128Z,1017.44
2019-01-10T09:07:03.482Z,1017.46
2019-01-10T09:08:02.490Z,1017.43
2019-01-10T09:09:02.455Z,1017.49
2019-01-10T09:10:02.445Z,1017.49
2019-01-10T09:11:02.425Z,1017.52
2019-01-10T09:12:02.418Z,1017.55
2019-01-10T09:13:02.417Z,1017.56
2019-01-10T09:14:04.650Z,1017.47
2019-01-10T09:15:02.383Z,1017.46
2019-01-10T09:16:02.370Z,1017.53
2019-01-10T09:17:02.369Z,1017.53
2019-01-10T09:18:02.381Z,1017.53
2019-01-10T09:19:02.334Z,1017.56
2019-01-10T09:20:02.331Z,1017.57
2019-01-10T09:21:04.510Z,1017.61
2019-01-10T09:22:02.319Z,1017.76
2019-01-10T09:23:02.331Z,1017.62
2019-01-10T09:24:02.292Z,1017.65
2019-01-10T09:25:02.277Z,1017.62
2019-01-10T09:26:02.267Z,1017.68
2019-01-10T09:27:02.294Z,1017.60
2019-01-10T09:28:02.251Z,1017.66
2019-01-10T09:29:02.228Z,1017.60
2019-01-10T09:30:02.227Z,1017.67
2019-01-10T09:31:02.236Z,1017.77
2019-01-10T09:32:02.210Z,1017.70
2019-01-10T09:33:02.268Z,1017.84
2019-01-10T09:34:02.185Z,1017.85
2019-01-10T09:35:02.163Z,1017.83
2019-01-10T09:36:02.158Z,1017.82
2019-01-10T09:37:03.915Z,1017.82
2019-01-10T09:38:02.148Z,1017.82
2019-01-10T09:39:02.115Z,1017.90
2019-01-10T09:40:02.113Z,1017.75
2019-01-10T09:41:02.098Z,1017.73
2019-01-10T09:42:02.103Z,1017.81
2019-01-10T09:43:02.101Z,1017.80
2019-01-10T09:44:02.063Z,1017.80
2019-01-10T09:45:02.056Z,1017.89
2019-01-10T09:46:02.034Z,1017.84
2019-01-10T09:47:02.031Z,1017.82
2019-01-10T09:48:02.010Z,1017.94
2019-01-10T09:49:02.047Z,1017.89
2019-01-10T09:50:02.004Z,1017.97
2019-01-10T09:51:02.006Z,1017.96
2019-01-10T09:52:01.967Z,1018.01
2019-01-10T09:53:01.980Z,1017.90
2019-01-10T09:54:01.972Z,1018.12
2019-01-10T09:55:01.939Z,1017.92
2019-01-10T09:56:01.932Z,1018.04
2019-01-10T09:57:01.938Z,1018.01
2019-01-10T09:58:01.951Z,1018.02
2019-01-10T09:59:01.930Z,1017.99
2019-01-10T10:00:01.894Z,1018.08
2019-01-10T10:01:01.881Z,1017.99
2019-01-10T10:02:01.877Z,1018.04
2019-01-10T10:03:01.876Z,1018.16
2019-01-10T10:04:01.864Z,1018.20
2019-01-10T10:05:01.854Z,1018.08
2019-01-10T10:06:07.599Z,1018.09
2019-01-10T10:07:02.808Z,1018.05
2019-01-10T10:08:01.792Z,1018.05
2019-01-10T10:09:01.826Z,1018.09
2019-01-10T10:10:01.800Z,1017.96
2019-01-10T10:11:01.775Z,1018.01
2019-01-10T10:12:01.748Z,1017.99
2019-01-10T10:13:01.751Z,1017.98
2019-01-10T10:14:01.761Z,1017.98
2019-01-10T10:15:01.741Z,1018.04
2019-01-10T10:16:01.733Z,1017.97
2019-01-10T10:17:01.706Z,1017.98
2019-01-10T10:18:01.681Z,1017.99
2019-01-10T10:19:01.689Z,1018.10
2019-01-10T10:20:01.671Z,1017.98
2019-01-10T10:21:01.676Z,1018.07
2019-01-10T10:22:01.643Z,1018.09
2019-01-10T10:23:01.654Z,1018.09
2019-01-10T10:24:01.627Z,1018.07
2019-01-10T10:25:01.681Z,1018.01
2019-01-10T10:26:01.607Z,1018.05
2019-01-10T10:27:01.621Z,1018.04
2019-01-10T10:28:01.587Z,1018.14
2019-01-10T10:29:01.573Z,1018.17
2019-01-10T10:30:01.610Z,1018.19
2019-01-10T10:31:01.558Z,1018.02
2019-01-10T10:32:01.534Z,1018.01
2019-01-10T10:33:01.530Z,1018.06
2019-01-10T10:34:01.542Z,1018.12
2019-01-10T10:35:01.518Z,1018.17
2019-01-10T10:36:01.507Z,1017.97
2019-01-10T10:37:01.474Z,1018.01
2019-01-10T10:38:01.485Z,1018.00
2019-01-10T10:39:01.477Z,1017.95
2019-01-10T10:40:01.477Z,1017.96
2019-01-10T10:41:01.432Z,1017.99
2019-01-10T10:42:01.431Z,1018.08
2019-01-10T10:43:01.414Z,1018.01
2019-01-10T10:44:01.435Z,1017.89
2019-01-10T10:45:01.424Z,1017.88
2019-01-10T10:46:02.013Z,1017.92
2019-01-10T10:47:02.404Z,1017.96
2019-01-10T10:48:01.363Z,1017.87
2019-01-10T10:49:01.345Z,1018.05
2019-01-10T10:50:01.368Z,1018.00
2019-01-10T10:51:01.321Z,1018.07
2019-01-10T10:52:01.316Z,1017.81
2019-01-10T10:53:01.321Z,1017.87
2019-01-10T10:54:01.321Z,1017.89
2019-01-10T10:55:01.294Z,1017.85
2019-01-10T10:56:01.280Z,1017.95
2019-01-10T10:57:01.273Z,1017.86
2019-01-10T10:58:01.251Z,1017.92
2019-01-10T10:59:01.250Z,1017.86
2019-01-10T11:00:01.259Z,1017.92
2019-01-10T11:01:01.222Z,1017.86
2019-01-10T11:02:01.210Z,1017.95
2019-01-10T11:03:01.199Z,1017.96
2019-01-10T11:04:01.215Z,1017.92
2019-01-10T11:05:01.199Z,1017.91
2019-01-10T11:06:01.171Z,1017.94
2019-01-10T11:07:01.157Z,1017.85
2019-01-10T11:08:01.156Z,1017.93
2019-01-10T11:09:09.134Z,1017.89
2019-01-10T11:10:02.136Z,1017.95
2019-01-10T11:11:01.110Z,1017.94
2019-01-10T11:12:01.144Z,1017.93
2019-01-10T11:13:01.089Z,1017.95
2019-01-10T11:14:01.098Z,1018.00
2019-01-10T11:15:01.083Z,1018.12
2019-01-10T11:16:01.086Z,1018.07
2019-01-10T11:17:01.046Z,1017.97
2019-01-10T11:18:01.027Z,1017.90
2019-01-10T11:19:01.026Z,1017.91
2019-01-10T11:20:01.024Z,1017.93
2019-01-10T11:21:01.029Z,1017.94
2019-01-10T11:22:01.007Z,1018.01
2019-01-10T11:23:10.222Z,1018.02
2019-01-10T11:24:01.967Z,1018.11
2019-01-10T11:25:00.956Z,1018.13
2019-01-10T11:26:00.959Z,1017.96
2019-01-10T11:27:00.928Z,1017.99
2019-01-10T11:28:00.914Z,1017.93
2019-01-10T11:29:00.914Z,1017.88
2019-01-10T11:30:00.900Z,1017.88
2019-01-10T11:31:00.902Z,1017.89
2019-01-10T11:32:00.878Z,1017.85
2019-01-10T11:33:00.904Z,1017.84
2019-01-10T11:34:00.848Z,1017.89
2019-01-10T11:35:00.846Z,1017.90
2019-01-10T11:36:00.850Z,1017.87
2019-01-10T11:37:00.827Z,1017.99
2019-01-10T11:38:00.815Z,1017.98
2019-01-10T11:39:00.838Z,1017.86
2019-01-10T11:40:00.787Z,1017.94
2019-01-10T11:41:00.790Z,1017.87
2019-01-10T11:42:00.770Z,1017.80
2019-01-10T11:43:00.755Z,1017.87
2019-01-10T11:44:00.772Z,1017.86
2019-01-10T11:45:00.738Z,1017.88
2019-01-10T11:46:00.730Z,1017.88
2019-01-10T11:47:00.715Z,1018.01
2019-01-10T11:48:00.715Z,1017.90
2019-01-10T11:49:00.702Z,1017.79
2019-01-10T11:50:00.688Z,1017.82
2019-01-10T11:51:00.685Z,1017.85
2019-01-10T11:52:00.658Z,1017.70
2019-01-10T11:53:00.654Z,1017.70
2019-01-10T11:54:00.641Z,1017.77
2019-01-10T11:55:00.630Z,1017.71
2019-01-10T11:56:00.635Z,1017.73
2019-01-10T11:57:00.592Z,1017.69
2019-01-10T11:58:00.589Z,1017.61
2019-01-10T11:59:00.619Z,1017.66
2019-01-10T12:00:00.568Z,1017.77
2019-01-10T12:01:00.583Z,1017.78
2019-01-10T12:02:00.545Z,1017.68
2019-01-10T12:03:00.536Z,1017.88
2019-01-10T12:04:00.527Z,1017.81
2019-01-10T12:05:00.523Z,1017.86